Time;durP1;ratioP1;P1;durP2;ratioP2;P2;SDS_P1;SDS_P2;PMS_P1;PMS_P2;Temp;Humidity;BMP_temperature;BMP_pressure;BME280_temperature;BME280_humidity;BME280_pressure;Samples;Min_cycle;Max_cycle;Signal;HPM_P1;HPM_P2
2023/08/13 00:04:40;;;;;;;2.88;0.90;;;;;;;21.00;68.34;97975.97;10333414;28;20514;-73
2023/08/13 00:10:01;;;;;;;1.92;0.80;;;;;;;21.05;68.41;97983.97;10325450;28;20146;-73
2023/08/13 00:15:21;;;;;;;1.90;0.93;;;;;;;21.05;68.75;97988.91;10325320;28;20449;-73
2023/08/13 00:20:42;;;;;;;2.05;1.00;;;;;;;21.07;69.03;98003.16;10325374;28;20121;-73
2023/08/13 00:26:03;;;;;;;1.90;0.80;;;;;;;21.11;68.56;98003.28;10338595;28;20078;-73
2023/08/13 00:31:23;;;;;;;1.20;0.70;;;;;;;21.19;68.79;98014.16;10311322;28;20164;-72
2023/08/13 00:36:44;;;;;;;2.72;0.85;;;;;;;21.26;68.84;98010.13;10324412;28;20256;-73
2023/08/13 00:42:05;;;;;;;2.28;0.70;;;;;;;21.34;68.60;98002.59;10338015;28;20536;-73
2023/08/13 00:47:27;;;;;;;2.83;0.70;;;;;;;21.41;68.66;98003.47;10337855;28;20062;-72
2023/08/13 00:52:47;;;;;;;1.75;0.77;;;;;;;21.39;68.01;97992.78;10324058;28;20099;-73
2023/08/13 00:58:08;;;;;;;1.67;0.80;;;;;;;21.36;68.29;97994.13;10323934;28;20146;-73
2023/08/13 01:03:30;;;;;;;1.60;0.77;;;;;;;21.39;68.26;98003.41;10323357;28;20145;-73
2023/08/13 01:09:26;;;;;;;1.92;0.70;;;;;;;21.36;68.15;97987.72;10323387;28;20480;-73
2023/08/13 01:14:55;;;;;;;2.78;1.15;;;;;;;21.33;68.46;97989.78;10334760;28;20137;-73
2023/08/13 01:20:18;;;;;;;4.07;0.80;;;;;;;21.29;68.42;97991.78;10322893;28;20130;-73
2023/08/13 01:25:40;;;;;;;;;;;;;;;21.27;69.08;97989.59;10323383;28;20113;-73
2023/08/13 01:31:07;;;;;;;2.88;1.10;;;;;;;21.25;68.40;97991.63;10336290;28;20459;-73
2023/08/13 01:36:28;;;;;;;3.42;1.02;;;;;;;21.19;68.65;98000.69;10309160;28;20138;-73
2023/08/13 01:41:54;;;;;;;2.65;0.90;;;;;;;21.20;69.05;97995.72;10322231;28;20050;-73
2023/08/13 01:47:15;;;;;;;1.60;1.00;;;;;;;21.22;69.20;97995.78;10321890;28;20497;-73
2023/08/13 01:52:36;;;;;;;1.70;0.80;;;;;;;21.27;69.04;97992.44;10321806;28;20065;-73
2023/08/13 01:57:57;;;;;;;2.47;1.15;;;;;;;21.30;68.90;97993.94;10334958;28;20079;-73
2023/08/13 02:03:17;;;;;;;3.00;1.10;;;;;;;21.32;68.99;98004.63;10307606;28;20101;-73
2023/08/13 02:08:38;;;;;;;3.05;1.00;;;;;;;21.24;68.67;97999.44;10321175;28;20172;-73
2023/08/13 02:14:01;;;;;;;2.35;1.00;;;;;;;21.16;69.21;97999.19;10334479;28;20118;-73
2023/08/13 02:19:21;;;;;;;3.28;1.10;;;;;;;21.00;69.43;98001.53;10334226;28;20130;-73
2023/08/13 02:24:42;;;;;;;4.47;1.05;;;;;;;20.91;69.85;98008.34;10333916;28;20165;-73
2023/08/13 02:30:03;;;;;;;3.00;1.20;;;;;;;20.81;70.23;98017.97;10319904;28;20121;-73
2023/08/13 02:35:24;;;;;;;3.35;1.38;;;;;;;20.68;70.60;98021.09;10306568;28;20046;-73
2023/08/13 02:40:45;;;;;;;3.65;1.17;;;;;;;20.55;70.73;98037.69;10333414;28;20457;-73
2023/08/13 02:46:06;;;;;;;1.98;0.93;;;;;;;20.49;71.74;98037.50;10333278;28;20172;-72
2023/08/13 02:51:27;;;;;;;2.85;1.27;;;;;;;20.54;71.33;98035.53;10319652;28;20070;-72
2023/08/13 02:56:47;;;;;;;3.42;1.20;;;;;;;20.57;71.63;98028.56;10319951;28;20118;-73
2023/08/13 03:02:08;;;;;;;3.75;1.20;;;;;;;20.55;71.38;98025.63;10319316;28;20121;-73
2023/08/13 03:07:29;;;;;;;1.50;1.13;;;;;;;20.54;72.07;98024.19;10319446;28;20554;-73
2023/08/13 03:12:49;;;;;;;4.22;1.00;;;;;;;20.54;71.96;98035.53;10333658;28;20165;-73
2023/08/13 03:18:10;;;;;;;3.42;1.25;;;;;;;20.55;72.46;98036.97;10319193;28;20074;-73
2023/08/13 03:23:35;;;;;;;3.75;1.42;;;;;;;20.50;72.73;98041.78;10319751;28;20069;-73
2023/08/13 03:28:56;;;;;;;2.00;1.27;;;;;;;20.44;72.92;98038.03;10333334;28;20073;-73
2023/08/13 03:34:17;;;;;;;2.08;1.05;;;;;;;20.44;73.17;98040.84;10319024;28;20122;-73
2023/08/13 03:39:38;;;;;;;4.07;1.10;;;;;;;20.42;73.27;98032.25;10334235;28;20467;-73
2023/08/13 03:44:59;;;;;;;1.83;1.20;;;;;;;20.48;73.61;98032.50;10340206;28;20125;-73
2023/08/13 03:50:20;;;;;;;2.63;1.02;;;;;;;20.56;73.46;98038.44;10326250;28;20118;-73
2023/08/13 03:55:40;;;;;;;2.03;1.10;;;;;;;20.52;73.41;98032.63;10339903;28;20065;-73
2023/08/13 04:01:06;;;;;;;3.35;1.42;;;;;;;20.44;73.54;98032.34;10326075;28;20104;-73
2023/08/13 04:06:30;;;;;;;1.88;1.00;;;;;;;20.44;74.23;98038.03;10313301;28;20138;-73
2023/08/13 04:11:50;;;;;;;3.88;1.73;;;;;;;20.53;74.08;98045.41;10325651;28;20038;-73
2023/08/13 04:17:11;;;;;;;2.78;1.00;;;;;;;20.50;73.94;98046.75;10325266;28;20590;-73
2023/08/13 04:22:33;;;;;;;3.00;1.20;;;;;;;20.48;73.91;98041.00;10325280;28;20085;-72
2023/08/13 04:27:53;;;;;;;4.25;1.30;;;;;;;20.54;73.92;98055.38;10324873;28;20112;-72
2023/08/13 04:33:15;;;;;;;2.03;1.20;;;;;;;20.53;73.64;98062.44;10324875;28;20596;-72
2023/08/13 04:38:36;;;;;;;3.95;1.30;;;;;;;20.61;74.20;98062.69;10338327;28;20121;-72
2023/08/13 04:43:59;;;;;;;1.92;1.02;;;;;;;20.82;73.76;98061.97;10297936;28;20122;-72
2023/08/13 04:49:19;;;;;;;1.63;1.30;;;;;;;21.15;73.10;98054.50;10323962;28;20146;-73
2023/08/13 04:54:40;;;;;;;3.28;1.30;;;;;;;21.51;72.58;98054.88;10337696;28;20453;-73
2023/08/13 05:00:05;;;;;;;2.70;1.20;;;;;;;21.92;72.05;98051.09;10324408;28;20097;-73
2023/08/13 05:05:32;;;;;;;3.83;1.17;;;;;;;22.42;71.07;98064.53;10324361;28;20545;-73
2023/08/13 05:10:52;;;;;;;3.63;1.35;;;;;;;22.85;69.81;98058.53;10337127;28;20134;-72
2023/08/13 05:16:13;;;;;;;2.92;1.05;;;;;;;23.40;69.04;98067.59;10309825;28;20073;-72
2023/08/13 05:21:35;;;;;;;4.20;1.20;;;;;;;24.07;67.43;98069.03;10323192;28;20145;-73
2023/08/13 05:26:57;;;;;;;1.90;1.30;;;;;;;24.73;66.37;98080.22;10336547;28;20121;-73
2023/08/13 05:32:17;;;;;;;2.58;1.35;;;;;;;25.59;64.00;98073.69;10337244;28;20122;-73
2023/08/13 05:37:38;;;;;;;4.30;1.30;;;;;;;26.33;62.98;98075.28;10322399;28;20062;-73
2023/08/13 05:42:59;;;;;;;5.72;1.40;;;;;;;27.20;60.59;98086.13;10308629;28;20468;-75
2023/08/13 05:48:21;;;;;;;2.47;1.58;;;;;;;27.91;57.66;98077.97;10322244;28;20066;-75
2023/08/13 05:53:42;;;;;;;2.78;1.30;;;;;;;30.83;51.17;98081.84;10308348;28;20038;-75
2023/08/13 05:59:03;;;;;;;1.65;1.10;;;;;;;35.81;41.99;98089.06;10321502;28;20061;-75
2023/08/13 06:04:24;;;;;;;2.55;1.30;;;;;;;39.08;33.80;98087.97;10307033;28;20475;-75
2023/08/13 06:09:45;;;;;;;3.05;1.05;;;;;;;44.52;28.74;98092.34;10334484;28;20173;-75
2023/08/13 06:15:06;;;;;;;1.80;0.85;;;;;;;44.82;23.94;98101.41;10334500;28;20046;-75
2023/08/13 06:20:27;;;;;;;2.92;1.08;;;;;;;41.35;28.12;98111.22;10334182;28;20444;-75
2023/08/13 06:25:48;;;;;;;6.25;1.70;;;;;;;45.83;22.80;98107.91;10334072;28;20073;-75
2023/08/13 06:31:09;;;;;;;2.70;0.88;;;;;;;46.13;21.12;98108.72;10307061;28;20066;-75
2023/08/13 06:36:41;;;;;;;1.90;0.93;;;;;;;48.53;18.62;98101.59;10321793;28;20039;-75
2023/08/13 06:42:02;;;;;;;3.28;1.10;;;;;;;43.89;20.71;98091.09;10306539;28;20063;-75
2023/08/13 06:47:24;;;;;;;1.48;0.85;;;;;;;44.19;20.22;98090.75;10319980;28;20041;-75
2023/08/13 06:52:45;;;;;;;1.80;0.90;;;;;;;41.89;22.39;98092.31;10319613;28;20109;-75
2023/08/13 06:58:06;;;;;;;2.05;0.93;;;;;;;41.16;22.80;98102.63;10319683;28;20070;-75
2023/08/13 07:03:27;;;;;;;2.90;0.90;;;;;;;40.27;24.45;98090.09;10319040;28;20055;-75
2023/08/13 07:08:48;;;;;;;8.13;1.20;;;;;;;43.78;21.93;98090.34;10319425;28;20038;-75
2023/08/13 07:14:08;;;;;;;2.17;0.80;;;;;;;42.71;22.10;98095.13;10322150;28;20042;-77
2023/08/13 07:19:29;;;;;;;1.58;0.75;;;;;;;44.20;21.05;98095.78;10327536;28;20046;-78
2023/08/13 07:24:50;;;;;;;1.58;1.08;;;;;;;44.38;18.80;98096.16;10313716;28;20042;-77
2023/08/13 07:30:12;;;;;;;3.13;0.68;;;;;;;39.93;22.05;98098.91;10313624;28;20101;-77
2023/08/13 07:35:33;;;;;;;1.95;0.85;;;;;;;40.37;22.77;98097.69;10313638;28;20476;-77
2023/08/13 07:40:55;;;;;;;1.50;0.70;;;;;;;41.14;22.39;98094.66;10326777;28;20061;-77
2023/08/13 07:46:16;;;;;;;1.92;0.63;;;;;;;42.94;21.95;98085.75;10326860;28;20088;-77
2023/08/13 07:51:37;;;;;;;1.83;0.70;;;;;;;47.63;18.79;98096.16;10326122;28;20130;-78
2023/08/13 07:56:58;;;;;;;2.45;0.75;;;;;;;52.03;13.43;98090.63;10312744;28;20046;-78
2023/08/13 08:02:19;;;;;;;2.05;0.57;;;;;;;50.04;14.41;98077.03;10325685;28;20046;-78
2023/08/13 08:07:39;;;;;;;1.58;0.90;;;;;;;50.64;13.22;98082.75;10312292;28;20472;-78
2023/08/13 08:13:00;;;;;;;2.20;0.70;;;;;;;51.78;13.26;98089.31;10325442;28;20433;-78
2023/08/13 08:18:21;;;;;;;1.10;0.60;;;;;;;53.15;10.88;98070.63;10325435;28;20042;-77
2023/08/13 08:23:42;;;;;;;1.60;0.60;;;;;;;52.49;11.86;98088.34;10298605;28;20101;-79
2023/08/13 08:29:04;;;;;;;1.23;0.50;;;;;;;54.18;10.73;98083.03;10310791;28;20066;-79
2023/08/13 08:34:25;;;;;;;1.52;0.63;;;;;;;53.64;10.98;98068.59;10324953;28;20081;-79
2023/08/13 08:39:51;;;;;;;1.23;0.47;;;;;;;55.31;10.89;98062.63;10324991;28;20042;-79
2023/08/13 08:45:12;;;;;;;2.70;0.65;;;;;;;49.62;12.23;98057.72;10324553;28;20488;-78
2023/08/13 08:50:37;;;;;;;1.20;0.60;;;;;;;43.81;18.75;98059.28;10324232;28;20499;-79
2023/08/13 08:55:59;;;;;;;1.60;0.50;;;;;;;45.97;15.47;98056.06;10310588;28;20042;-78
2023/08/13 09:01:20;;;;;;;2.22;0.68;;;;;;;40.76;18.58;98058.53;10310186;28;20050;-77
2023/08/13 09:06:57;;;;;;;1.80;0.70;;;;;;;38.13;22.02;98055.28;10296805;28;20042;-77
2023/08/13 09:12:18;;;;;;;1.75;0.73;;;;;;;45.19;19.50;98049.63;10323684;28;20042;-78
2023/08/13 09:17:40;;;;;;;1.42;0.57;;;;;;;51.28;14.98;98059.13;10323209;28;20049;-80
2023/08/13 09:23:01;;;;;;;1.25;0.47;;;;;;;55.17;10.46;98055.22;10336328;28;20046;-79
2023/08/13 09:28:22;;;;;;;3.05;0.50;;;;;;;53.32;10.58;98057.72;10309227;28;20046;-78
2023/08/13 09:33:45;;;;;;;1.15;0.43;;;;;;;52.06;11.61;98053.81;10308899;28;20551;-78
2023/08/13 09:39:07;;;;;;;1.17;0.50;;;;;;;50.81;11.70;98052.28;10309031;28;20495;-80
2023/08/13 09:44:29;;;;;;;3.55;0.43;;;;;;;51.60;11.02;98058.31;10308854;28;20083;-79
2023/08/13 09:49:51;;;;;;;1.40;0.40;;;;;;;52.20;11.05;98045.09;10295621;28;20546;-79
2023/08/13 09:55:13;;;;;;;0.73;0.32;;;;;;;49.55;11.12;98054.56;10308182;28;20539;-78
2023/08/13 10:00:34;;;;;;;1.98;0.50;;;;;;;47.49;13.28;98041.81;10294654;28;20050;-77
2023/08/13 10:05:55;;;;;;;1.33;0.50;;;;;;;46.19;15.33;98040.44;10307573;28;20085;-77
2023/08/13 10:11:17;;;;;;;1.98;0.70;;;;;;;45.42;14.73;98042.91;10334495;28;20061;-79
2023/08/13 10:16:39;;;;;;;1.83;0.45;;;;;;;41.97;18.34;98033.25;10307464;28;20472;-78
2023/08/13 10:21:59;;;;;;;2.03;0.50;;;;;;;43.70;18.39;98029.09;10307137;28;20528;-78
2023/08/13 10:27:21;;;;;;;2.97;0.73;;;;;;;43.83;18.50;98026.84;10306958;28;20491;-78
2023/08/13 10:32:58;;;;;;;4.30;0.60;;;;;;;49.50;14.66;98021.59;10320403;28;20402;-78
2023/08/13 10:38:22;;;;;;;1.23;0.60;;;;;;;53.44;11.35;98027.34;10307422;28;20038;-78
2023/08/13 10:43:43;;;;;;;1.45;0.32;;;;;;;49.05;11.91;98032.97;10319800;28;20089;-78
2023/08/13 10:49:05;;;;;;;2.58;0.50;;;;;;;43.69;15.19;98027.69;10319345;28;20053;-79
2023/08/13 10:54:26;;;;;;;0.45;0.30;;;;;;;41.58;18.02;98019.94;10306294;28;20392;-77
2023/08/13 10:59:47;;;;;;;0.57;0.30;;;;;;;43.90;16.40;98024.91;10319368;28;20042;-78
2023/08/13 11:05:07;;;;;;;1.30;0.40;;;;;;;40.15;19.35;98020.50;10305784;28;20054;-78
2023/08/13 11:10:28;;;;;;;1.00;0.30;;;;;;;40.04;20.16;98014.41;10305727;28;20042;-77
2023/08/13 11:15:50;;;;;;;0.85;0.30;;;;;;;39.03;21.67;98011.56;10305661;28;20380;-77
2023/08/13 11:21:12;;;;;;;0.63;0.40;;;;;;;38.64;21.99;98018.31;10319232;28;20129;-78
2023/08/13 11:26:34;;;;;;;0.82;0.30;;;;;;;38.20;23.11;98015.66;10318988;28;20073;-78
2023/08/13 11:31:55;;;;;;;1.15;0.50;;;;;;;37.83;23.57;98022.16;10305768;28;20046;-78
2023/08/13 11:37:16;;;;;;;0.75;0.30;;;;;;;36.96;24.36;98011.41;10332612;28;20054;-78
2023/08/13 11:42:56;;;;;;;1.10;0.30;;;;;;;36.01;25.44;98015.88;10305199;28;20396;-77
2023/08/13 11:48:18;;;;;;;0.80;0.35;;;;;;;35.82;26.03;98015.69;10332257;28;20042;-77
2023/08/13 11:53:43;;;;;;;1.13;0.40;;;;;;;36.14;26.16;98007.50;10318517;28;20042;-78
2023/08/13 11:59:07;;;;;;;1.08;0.40;;;;;;;36.52;25.88;98001.97;10318371;28;20038;-77
2023/08/13 12:04:32;;;;;;;2.30;0.47;;;;;;;36.66;25.41;98008.03;10325924;28;20050;-77
2023/08/13 12:09:57;;;;;;;1.88;0.60;;;;;;;36.32;25.61;98000.41;10313304;28;20038;-77
2023/08/13 12:15:21;;;;;;;1.23;0.40;;;;;;;35.82;26.13;98006.28;10325804;28;20054;-77
2023/08/13 12:20:42;;;;;;;1.13;0.40;;;;;;;35.73;26.44;97999.28;10311936;28;20369;-77
2023/08/13 12:26:03;;;;;;;2.38;0.30;;;;;;;35.04;27.16;97995.38;10311681;28;20125;-77
2023/08/13 12:31:27;;;;;;;1.40;0.38;;;;;;;34.24;27.70;98005.97;10338456;28;20050;-77
2023/08/13 12:36:48;;;;;;;2.13;0.38;;;;;;;33.49;29.51;98010.44;10325215;28;20100;-77
2023/08/13 12:42:09;;;;;;;;;;;;;;;33.13;30.03;98003.88;10311568;28;20046;-75
2023/08/13 12:47:30;;;;;;;1.05;0.50;;;;;;;32.53;30.29;98008.50;10324388;28;19932;-75
2023/08/13 12:52:51;;;;;;;1.13;0.38;;;;;;;32.09;30.83;97999.75;10324233;28;20400;-75
2023/08/13 12:58:12;;;;;;;;;;;;;;;31.56;32.36;97994.66;10324326;28;20062;-75
2023/08/13 13:03:33;;;;;;;2.67;0.70;;;;;;;31.29;33.15;97997.13;10336913;28;19922;-75
2023/08/13 13:08:54;;;;;;;2.13;0.70;;;;;;;31.29;33.92;97993.53;10323661;28;20392;-74
2023/08/13 13:14:15;;;;;;;2.03;0.60;;;;;;;31.43;34.55;98004.19;10322908;28;20620;-75
2023/08/13 13:19:37;;;;;;;2.23;0.80;;;;;;;31.10;35.06;97998.75;10323216;28;20054;-75
2023/08/13 13:24:58;;;;;;;1.35;0.80;;;;;;;31.01;35.54;97998.13;10336444;28;20629;-75
2023/08/13 13:30:20;;;;;;;1.95;0.77;;;;;;;30.83;36.26;97998.28;10322762;28;20050;-74
2023/08/13 13:35:41;;;;;;;2.07;0.90;;;;;;;30.77;36.50;97989.69;10335917;28;20046;-74
2023/08/13 13:41:02;;;;;;;2.33;1.00;;;;;;;31.07;36.81;97982.91;10308830;28;20093;-75
2023/08/13 13:46:23;;;;;;;2.40;0.90;;;;;;;31.67;36.60;97983.00;10335508;28;20441;-74
2023/08/13 13:51:44;;;;;;;2.65;1.02;;;;;;;32.35;35.87;97971.97;10308492;28;20057;-74
2023/08/13 13:57:05;;;;;;;2.10;1.10;;;;;;;32.12;35.71;97963.59;10335419;28;20100;-75
2023/08/13 14:02:26;;;;;;;2.40;1.10;;;;;;;31.80;36.51;97961.19;10321399;28;20104;-74
2023/08/13 14:07:47;;;;;;;2.55;1.00;;;;;;;31.72;36.24;97961.28;10321136;28;20281;-74
2023/08/13 14:13:08;;;;;;;8.03;1.17;;;;;;;31.46;36.83;97950.78;10321191;28;20050;-74
2023/08/13 14:18:29;;;;;;;3.93;1.10;;;;;;;31.15;36.56;97948.22;10334634;28;20278;-74
2023/08/13 14:23:50;;;;;;;2.67;0.93;;;;;;;30.62;37.61;97942.28;10320070;28;20050;-73
2023/08/13 14:29:11;;;;;;;2.07;1.10;;;;;;;30.36;37.61;97934.56;10334099;28;20061;-74
2023/08/13 14:34:32;;;;;;;3.30;1.17;;;;;;;30.38;38.32;97931.69;10333945;28;20500;-74
2023/08/13 14:39:53;;;;;;;2.43;1.00;;;;;;;30.31;38.68;97930.31;10319978;28;20120;-74
2023/08/13 14:45:14;;;;;;;3.27;1.20;;;;;;;30.12;38.94;97941.25;10320153;28;20043;-74
2023/08/13 14:50:34;;;;;;;3.50;1.70;;;;;;;30.00;38.97;97938.41;10319775;28;20588;-74
2023/08/13 14:55:55;;;;;;;2.88;1.42;;;;;;;29.75;39.70;97929.94;10319820;28;20077;-74
2023/08/13 15:01:16;;;;;;;3.53;1.15;;;;;;;29.46;40.57;97917.13;10319161;28;20046;-74
2023/08/13 15:06:38;;;;;;;2.40;1.08;;;;;;;29.33;41.52;97925.78;10319360;28;20459;-74
2023/08/13 15:11:59;;;;;;;3.28;1.20;;;;;;;29.23;42.46;97934.44;10306059;28;20078;-74
2023/08/13 15:17:20;;;;;;;4.75;1.10;;;;;;;29.14;42.81;97933.03;10319220;28;20042;-74
2023/08/13 15:22:41;;;;;;;2.85;1.00;;;;;;;28.97;42.98;97923.78;10319033;28;20464;-74
2023/08/13 15:28:02;;;;;;;4.30;1.45;;;;;;;29.08;43.38;97922.31;10319016;28;20046;-74
2023/08/13 15:33:23;;;;;;;3.33;1.33;;;;;;;29.30;43.49;97921.50;10332719;28;20054;-74
2023/08/13 15:38:44;;;;;;;5.78;1.35;;;;;;;29.53;43.68;97912.78;10341532;28;20492;-74
2023/08/13 15:44:05;;;;;;;3.45;1.20;;;;;;;29.57;43.66;97915.66;10326768;28;20047;-74
2023/08/13 15:49:26;;;;;;;5.35;1.63;;;;;;;29.39;43.72;97913.56;10326626;28;20042;-74
2023/08/13 15:54:47;;;;;;;4.05;1.50;;;;;;;29.21;43.79;97916.50;10326458;28;20042;-74
2023/08/13 16:00:08;;;;;;;2.55;1.27;;;;;;;28.94;44.09;97907.97;10326187;28;20053;-74
2023/08/13 16:05:38;;;;;;;4.85;1.25;;;;;;;28.69;44.77;97900.84;10315070;28;20062;-74
2023/08/13 16:10:59;;;;;;;4.15;1.27;;;;;;;28.53;45.34;97901.56;10325684;28;20061;-74
2023/08/13 16:16:20;;;;;;;6.13;1.43;;;;;;;28.46;45.60;97891.53;10325446;28;20066;-74
2023/08/13 16:21:42;;;;;;;4.63;1.23;;;;;;;28.57;46.23;97890.09;10338745;28;20499;-74
2023/08/13 16:27:03;;;;;;;1.98;1.25;;;;;;;28.71;46.23;97890.06;10325287;28;20046;-74
2023/08/13 16:32:24;;;;;;;4.15;1.30;;;;;;;28.56;46.48;97888.63;10338256;28;20069;-74
2023/08/13 16:37:49;;;;;;;2.85;1.20;;;;;;;28.40;46.73;97891.53;10312374;28;20050;-74
2023/08/13 16:43:11;;;;;;;3.23;1.47;;;;;;;28.17;47.09;97888.63;10324316;28;20049;-74
2023/08/13 16:48:33;;;;;;;4.35;1.80;;;;;;;27.86;47.68;97878.59;10323720;28;20092;-74
2023/08/13 16:53:54;;;;;;;3.67;1.80;;;;;;;27.43;48.73;97884.22;10337616;28;20077;-74
2023/08/13 16:59:15;;;;;;;2.53;1.60;;;;;;;27.41;49.12;97875.63;10323854;28;20424;-74
2023/08/13 17:04:36;;;;;;;2.45;1.50;;;;;;;27.37;49.22;97878.47;10336873;28;20500;-74
2023/08/13 17:09:56;;;;;;;2.35;1.73;;;;;;;27.19;49.82;97878.41;10323307;28;20047;-74
2023/08/13 17:15:17;;;;;;;6.40;1.30;;;;;;;27.00;49.80;97869.69;10323358;28;20449;-74
2023/08/13 17:20:45;;;;;;;5.07;1.83;;;;;;;26.80;50.57;97864.59;10323996;28;20065;-74
2023/08/13 17:26:06;;;;;;;2.95;1.70;;;;;;;26.63;50.62;97868.06;10322865;28;20062;-74
2023/08/13 17:31:30;;;;;;;5.85;1.45;;;;;;;26.51;51.23;97878.03;10322937;28;20046;-74
2023/08/13 17:36:51;;;;;;;3.72;1.73;;;;;;;26.45;51.62;97889.44;10308916;28;20039;-74
2023/08/13 17:42:11;;;;;;;4.03;1.50;;;;;;;26.42;51.92;97864.38;10322246;28;20453;-74
2023/08/13 17:47:33;;;;;;;4.33;1.70;;;;;;;26.30;52.11;97873.56;10322197;28;20476;-75
2023/08/13 17:52:54;;;;;;;3.67;1.70;;;;;;;26.21;52.54;97883.50;10336414;28;20043;-75
2023/08/13 17:58:15;;;;;;;3.42;1.95;;;;;;;26.17;52.98;97889.22;10293796;28;20069;-75
2023/08/13 18:03:35;;;;;;;4.30;1.88;;;;;;;26.10;53.32;97899.16;10321422;28;20500;-74
2023/08/13 18:08:56;;;;;;;5.50;2.60;;;;;;;26.01;53.38;97898.34;10335641;28;20070;-74
2023/08/13 18:14:26;;;;;;;4.97;2.10;;;;;;;25.95;53.67;97899.00;10322103;28;20043;-74
2023/08/13 18:19:47;;;;;;;4.68;1.45;;;;;;;25.87;54.02;97903.97;10334332;28;20100;-74
2023/08/13 18:25:12;;;;;;;7.03;3.25;;;;;;;25.74;54.52;97891.66;10320644;28;20137;-74
2023/08/13 18:30:33;;;;;;;6.85;1.80;;;;;;;25.57;54.81;97899.31;10307302;28;20126;-74
2023/08/13 18:35:55;;;;;;;4.75;2.47;;;;;;;25.43;55.54;97904.91;10320352;28;20053;-74
2023/08/13 18:41:16;;;;;;;5.65;3.35;;;;;;;25.28;56.02;97912.56;10320501;28;20050;-74
2023/08/13 18:46:37;;;;;;;6.00;3.85;;;;;;;25.19;56.67;97916.75;10306506;28;20043;-74
2023/08/13 18:51:59;;;;;;;4.50;2.70;;;;;;;25.10;57.03;97920.94;10319806;28;20049;-73
2023/08/13 18:57:20;;;;;;;4.50;2.25;;;;;;;25.01;57.00;97919.34;10319849;28;20089;-74
2023/08/13 19:02:41;;;;;;;9.73;2.40;;;;;;;24.92;57.62;97929.22;10332995;28;20065;-74
2023/08/13 19:08:05;;;;;;;4.82;1.88;;;;;;;24.79;57.87;97926.19;10305845;28;20057;-74
2023/08/13 19:13:26;;;;;;;4.03;2.00;;;;;;;24.69;58.53;97923.19;10306710;28;20064;-74
2023/08/13 19:18:51;;;;;;;4.60;1.73;;;;;;;24.63;59.10;97925.25;10319503;28;20122;-74
2023/08/13 19:24:12;;;;;;;5.35;1.95;;;;;;;24.52;58.94;97910.81;10333580;28;20046;-74
2023/08/13 19:29:33;;;;;;;4.53;1.73;;;;;;;24.47;59.54;97923.56;10318964;28;20073;-75
2023/08/13 19:34:53;;;;;;;4.00;1.67;;;;;;;24.43;60.03;97917.81;10332372;28;20042;-74
2023/08/13 19:40:15;;;;;;;5.90;2.00;;;;;;;24.40;60.40;97913.47;10333327;28;20114;-75
2023/08/13 19:45:36;;;;;;;4.63;1.75;;;;;;;24.32;60.61;97913.38;10318992;28;20114;-74
2023/08/13 19:50:57;;;;;;;3.60;1.77;;;;;;;24.26;61.13;97911.09;10318984;28;20077;-74
2023/08/13 19:56:18;;;;;;;4.80;1.80;;;;;;;24.26;61.28;97922.50;10333183;28;20118;-74
2023/08/13 20:01:39;;;;;;;3.92;1.85;;;;;;;24.32;61.25;97918.31;10304855;28;20489;-75
2023/08/13 20:06:59;;;;;;;4.57;2.00;;;;;;;24.33;61.75;97909.09;10318432;28;20050;-74
2023/08/13 20:12:20;;;;;;;3.95;1.90;;;;;;;24.32;61.61;97910.50;10318034;28;20073;-73
2023/08/13 20:17:41;;;;;;;3.83;2.00;;;;;;;24.26;62.21;97904.66;10332795;28;20582;-74
2023/08/13 20:23:02;;;;;;;4.88;2.03;;;;;;;24.27;62.20;97914.66;10321887;28;20096;-73
2023/08/13 20:28:23;;;;;;;6.75;1.65;;;;;;;24.30;62.27;97909.72;10311781;28;20066;-74
2023/08/13 20:33:44;;;;;;;3.25;1.75;;;;;;;24.30;62.17;97923.97;10311573;28;20039;-74
2023/08/13 20:39:06;;;;;;;3.42;1.95;;;;;;;24.32;62.53;97924.78;10339305;28;20118;-74
2023/08/13 20:44:27;;;;;;;6.30;2.13;;;;;;;24.36;62.33;97921.97;10324863;28;20061;-74
2023/08/13 20:49:48;;;;;;;3.67;1.77;;;;;;;24.36;62.23;97930.53;10338054;28;20499;-74
2023/08/13 20:55:09;;;;;;;5.32;1.65;;;;;;;24.38;62.37;97921.28;10324031;28;20073;-74
2023/08/13 21:00:30;;;;;;;3.85;2.25;;;;;;;24.36;62.34;97921.25;10337708;28;20053;-74
2023/08/13 21:05:51;;;;;;;3.83;2.10;;;;;;;24.27;62.20;97903.97;10323711;28;20051;-73
2023/08/13 21:11:12;;;;;;;3.97;2.17;;;;;;;24.19;62.60;97920.94;10337222;28;20062;-74
2023/08/13 21:16:32;;;;;;;6.03;2.00;;;;;;;24.17;62.85;97935.19;10323321;28;20042;-74
2023/08/13 21:21:54;;;;;;;3.42;1.83;;;;;;;24.26;62.78;97962.44;10322830;28;20129;-74
2023/08/13 21:27:14;;;;;;;4.20;2.17;;;;;;;24.31;62.70;97940.41;10323202;28;20500;-74
2023/08/13 21:32:35;;;;;;;4.57;2.15;;;;;;;24.26;62.98;97953.88;10336065;28;20133;-74
2023/08/13 21:37:56;;;;;;;3.03;1.73;;;;;;;24.29;63.17;97948.91;10336230;28;20482;-74
2023/08/13 21:43:16;;;;;;;6.43;2.13;;;;;;;24.20;63.45;97947.34;10336826;28;20058;-73
2023/08/13 21:48:37;;;;;;;4.60;1.80;;;;;;;24.21;63.21;97958.06;10308632;28;20070;-74
2023/08/13 21:53:58;;;;;;;4.55;2.05;;;;;;;24.19;63.01;97957.31;10322075;28;20070;-74
2023/08/13 21:59:19;;;;;;;4.15;1.50;;;;;;;23.94;63.12;97953.31;10321771;28;20218;-74
2023/08/13 22:04:40;;;;;;;4.25;1.30;;;;;;;23.85;63.07;97958.16;10307847;28;20074;-74
2023/08/13 22:10:02;;;;;;;4.28;1.25;;;;;;;23.72;63.03;97944.34;10335030;28;20046;-74
2023/08/13 22:15:23;;;;;;;2.80;0.90;;;;;;;23.56;63.22;97945.47;10335733;28;20042;-74
2023/08/13 22:20:43;;;;;;;4.85;0.85;;;;;;;23.35;63.30;97954.97;10307412;28;20126;-73
2023/08/13 22:26:04;;;;;;;2.15;1.00;;;;;;;23.31;63.78;97964.19;10334300;28;20077;-73
2023/08/13 22:31:37;;;;;;;2.50;1.15;;;;;;;23.28;63.27;97944.91;10334310;28;20461;-74
2023/08/13 22:36:58;;;;;;;2.45;1.00;;;;;;;23.03;63.99;97943.66;10306919;28;20118;-74
2023/08/13 22:42:19;;;;;;;3.00;1.15;;;;;;;22.88;64.46;97951.16;10320384;28;20146;-73
2023/08/13 22:47:40;;;;;;;5.93;1.08;;;;;;;22.90;65.04;97954.06;10319415;28;20177;-74
2023/08/13 22:53:00;;;;;;;2.78;0.90;;;;;;;22.98;64.93;97957.06;10333448;28;20077;-74
2023/08/13 22:58:21;;;;;;;4.47;1.08;;;;;;;23.08;64.84;97962.28;10333266;28;20047;-74
2023/08/13 23:03:42;;;;;;;4.15;1.10;;;;;;;23.01;64.47;97947.19;10333152;28;20137;-74
2023/08/13 23:09:03;;;;;;;2.40;1.10;;;;;;;22.89;64.55;97941.22;10319690;28;20118;-73
2023/08/13 23:14:23;;;;;;;2.67;1.33;;;;;;;22.69;65.00;97950.00;10333841;28;20118;-74
2023/08/13 23:19:44;;;;;;;4.90;1.33;;;;;;;22.66;65.87;97951.34;10319459;28;20114;-74
2023/08/13 23:25:06;;;;;;;2.90;1.05;;;;;;;22.72;66.11;97953.59;10332766;28;20122;-74
2023/08/13 23:30:27;;;;;;;3.78;1.13;;;;;;;22.72;66.16;97942.22;10332710;28;20069;-74
2023/08/13 23:35:48;;;;;;;3.20;1.15;;;;;;;22.78;66.48;97936.69;10332602;28;20070;-75
2023/08/13 23:41:08;;;;;;;3.45;1.40;;;;;;;22.82;66.67;97933.91;10318806;28;20173;-74
2023/08/13 23:46:29;;;;;;;4.47;1.27;;;;;;;22.88;66.32;97934.09;10318967;28;20519;-73
2023/08/13 23:51:50;;;;;;;3.95;1.15;;;;;;;22.78;66.64;97923.19;10332062;28;20361;-74
2023/08/13 23:57:11;;;;;;;4.70;1.33;;;;;;;22.69;66.81;97927.25;10323178;28;20592;-74
